createdAt,value
2024-03-12T00:01:09.193Z,88.65
2024-03-12T00:03:45.499Z,86.45
2024-03-12T00:06:14.349Z,87.75
2024-03-12T00:08:44.701Z,92.85
2024-03-12T00:11:13.298Z,105.18
2024-03-12T00:16:13.272Z,112.43
2024-03-12T00:18:42.318Z,113.28
2024-03-12T00:23:42.970Z,145.10
2024-03-12T00:26:11.917Z,178.95
2024-03-12T00:31:13.864Z,208.18
2024-03-12T00:33:44.933Z,180.95
2024-03-12T00:36:13.796Z,177.90
2024-03-12T00:38:42.994Z,158.23
2024-03-12T00:41:12.739Z,169.25
2024-03-12T00:43:41.392Z,205.77
2024-03-12T00:46:12.603Z,64.97
2024-03-12T00:48:44.525Z,60.47
2024-03-12T00:51:13.168Z,57.63
2024-03-12T00:53:41.888Z,57.00
2024-03-12T00:56:16.471Z,54.95
2024-03-12T00:58:44.928Z,54.08
2024-03-12T01:01:16.644Z,54.60
2024-03-12T01:03:49.807Z,52.65
2024-03-12T01:06:18.433Z,49.35
2024-03-12T01:08:47.571Z,51.90
2024-03-12T01:11:16.125Z,50.83
2024-03-12T01:13:45.443Z,49.60
2024-03-12T01:16:16.501Z,49.88
2024-03-12T01:18:47.597Z,49.17
2024-03-12T01:21:16.013Z,47.97
2024-03-12T01:23:44.549Z,47.85
2024-03-12T01:26:16.901Z,48.75
2024-03-12T01:28:47.354Z,49.97
2024-03-12T01:31:17.157Z,45.15
2024-03-12T01:33:48.313Z,48.88
2024-03-12T01:36:22.259Z,49.10
2024-03-12T01:39:17.367Z,48.35
2024-03-12T01:41:48.478Z,48.50
2024-03-12T01:44:18.548Z,46.55
2024-03-12T01:46:47.450Z,45.30
2024-03-12T01:49:19.933Z,48.20
2024-03-12T01:51:48.209Z,50.40
2024-03-12T01:54:16.689Z,40.33
2024-03-12T01:56:45.050Z,43.30
2024-03-12T01:59:17.242Z,49.10
2024-03-12T02:01:45.971Z,51.38
2024-03-12T02:04:18.298Z,52.25
2024-03-12T02:06:47.669Z,50.10
2024-03-12T02:09:16.162Z,50.97
2024-03-12T02:11:45.987Z,48.47
2024-03-12T02:16:43.613Z,60.35
2024-03-12T02:19:12.077Z,55.40
2024-03-12T02:21:43.881Z,52.88
2024-03-12T02:24:13.630Z,53.50
2024-03-12T02:26:42.386Z,52.08
2024-03-12T02:29:11.784Z,52.83
2024-03-12T02:31:40.093Z,48.38
2024-03-12T02:34:08.811Z,49.30
2024-03-12T02:36:38.702Z,48.85
2024-03-12T02:39:07.810Z,56.00
2024-03-12T02:44:07.587Z,60.33
2024-03-12T02:46:36.275Z,56.45
2024-03-12T02:49:04.952Z,60.20
2024-03-12T02:51:33.531Z,55.88
2024-03-12T02:54:02.179Z,50.20
2024-03-12T02:56:30.476Z,49.13
2024-03-12T02:59:00.582Z,51.72
2024-03-12T03:01:49.920Z,52.28
2024-03-12T03:04:18.608Z,48.88
2024-03-12T03:06:48.185Z,54.03
2024-03-12T03:09:18.909Z,49.70
2024-03-12T03:11:47.628Z,49.25
2024-03-12T03:14:17.845Z,47.58
2024-03-12T03:16:46.780Z,49.50
2024-03-12T03:21:45.423Z,60.65
2024-03-12T03:24:13.992Z,51.92
2024-03-12T03:26:42.514Z,54.80
2024-03-12T03:29:12.092Z,53.88
2024-03-12T03:31:44.695Z,54.00
2024-03-12T03:34:15.265Z,51.88
2024-03-12T03:36:44.846Z,52.83
2024-03-12T03:39:13.438Z,51.97
2024-03-12T03:41:42.062Z,54.63
2024-03-12T03:44:11.136Z,52.80
2024-03-12T03:46:39.751Z,53.50
2024-03-12T03:49:09.897Z,55.42
2024-03-12T03:51:38.406Z,53.95
2024-03-12T03:54:08.987Z,54.38
2024-03-12T03:56:39.652Z,54.25
2024-03-12T03:59:08.102Z,54.58
2024-03-12T04:01:36.920Z,57.05
2024-03-12T04:06:56.308Z,57.42
2024-03-12T04:09:27.063Z,58.67
2024-03-12T04:11:59.820Z,60.47
2024-03-12T04:14:28.449Z,56.22
2024-03-12T04:16:56.821Z,59.60
2024-03-12T04:19:25.426Z,62.00
2024-03-12T04:21:56.298Z,61.47
2024-03-12T04:24:26.314Z,63.40
2024-03-12T04:26:55.772Z,64.53
2024-03-12T04:29:23.880Z,71.53
2024-03-12T04:31:52.436Z,79.97
2024-03-12T04:34:22.162Z,94.45
2024-03-12T04:36:50.844Z,98.38
2024-03-12T04:39:31.905Z,150.63
2024-03-12T04:42:03.430Z,180.55
2024-03-12T04:44:32.381Z,214.73
2024-03-12T04:49:32.488Z,171.50
2024-03-12T04:52:02.758Z,176.07
2024-03-12T04:54:33.670Z,181.57
2024-03-12T04:57:02.912Z,154.90
2024-03-12T04:59:32.917Z,137.63
2024-03-12T05:02:04.427Z,103.80
2024-03-12T05:04:32.947Z,106.90
2024-03-12T05:07:01.571Z,120.43
2024-03-12T05:09:30.404Z,122.10
2024-03-12T05:14:32.654Z,126.70
2024-03-12T05:17:01.196Z,135.05
2024-03-12T05:19:30.408Z,119.50
2024-03-12T05:21:58.929Z,119.22
2024-03-12T05:24:31.261Z,118.03
2024-03-12T05:27:04.707Z,124.32
2024-03-12T05:29:38.197Z,126.63
2024-03-12T05:32:19.170Z,126.13
2024-03-12T05:34:48.720Z,128.43
2024-03-12T05:37:30.069Z,123.60
2024-03-12T05:40:16.037Z,135.88
2024-03-12T05:43:04.308Z,129.93
2024-03-12T05:45:50.318Z,136.32
2024-03-12T05:48:18.816Z,141.00
2024-03-12T05:50:48.035Z,140.85
2024-03-12T05:53:16.913Z,149.90
2024-03-12T05:55:45.170Z,181.75
2024-03-12T05:58:16.804Z,222.75
2024-03-12T06:00:46.487Z,215.52
2024-03-12T06:03:16.111Z,118.90
2024-03-12T06:05:44.866Z,169.35
2024-03-12T06:08:13.129Z,149.73
2024-03-12T06:10:42.400Z,145.90
2024-03-12T06:13:10.578Z,144.80
2024-03-12T06:15:40.428Z,132.45
2024-03-12T06:18:08.622Z,146.65
2024-03-12T06:20:37.090Z,147.88
2024-03-12T06:23:05.549Z,143.60
2024-03-12T06:25:33.763Z,150.90
2024-03-12T06:28:06.804Z,166.60
2024-03-12T06:30:36.378Z,209.73
2024-03-12T06:33:07.732Z,207.40
2024-03-12T06:35:37.200Z,219.13
2024-03-12T06:38:06.281Z,121.10
2024-03-12T06:40:35.620Z,113.68
2024-03-12T06:43:03.779Z,97.85
2024-03-12T06:45:32.786Z,94.10
2024-03-12T06:48:01.624Z,91.38
2024-03-12T06:50:31.545Z,97.53
2024-03-12T06:53:00.065Z,97.47
2024-03-12T06:55:28.846Z,88.47
2024-03-12T06:58:01.525Z,91.85
2024-03-12T07:00:33.845Z,97.22
2024-03-12T07:03:04.392Z,86.50
2024-03-12T07:05:39.052Z,88.85
2024-03-12T07:08:08.348Z,95.13
2024-03-12T07:10:38.638Z,102.80
2024-03-12T07:13:08.526Z,93.22
2024-03-12T07:15:40.473Z,94.05
2024-03-12T07:18:09.446Z,92.10
2024-03-12T07:23:07.918Z,99.00
2024-03-12T07:25:36.674Z,103.53
2024-03-12T07:28:14.424Z,97.20
2024-03-12T07:30:45.745Z,99.60
2024-03-12T07:33:14.597Z,101.57
2024-03-12T07:35:45.340Z,95.60
2024-03-12T07:38:13.526Z,96.60
2024-03-12T07:40:44.993Z,103.32
2024-03-12T07:43:15.889Z,90.18
2024-03-12T07:45:51.135Z,100.93
2024-03-12T07:48:23.679Z,100.30
2024-03-12T07:51:03.201Z,109.30
2024-03-12T07:53:32.007Z,106.53
2024-03-12T07:56:02.465Z,120.53
2024-03-12T07:58:31.131Z,115.63
2024-03-12T08:01:00.249Z,116.38
2024-03-12T08:03:29.089Z,115.80
2024-03-12T08:06:00.904Z,117.40
2024-03-12T08:08:29.306Z,120.35
2024-03-12T08:10:58.861Z,113.45
2024-03-12T08:13:28.517Z,128.65
2024-03-12T08:15:57.184Z,142.75
2024-03-12T08:18:25.870Z,194.90
2024-03-12T08:20:54.244Z,172.18
2024-03-12T08:23:25.348Z,110.22
2024-03-12T08:25:56.774Z,93.60
2024-03-12T08:31:02.428Z,103.13
2024-03-12T08:33:36.890Z,83.93
2024-03-12T08:38:36.108Z,89.95
2024-03-12T08:41:04.652Z,75.93
2024-03-12T08:43:35.932Z,67.20
2024-03-12T08:46:04.906Z,70.90
2024-03-12T08:51:04.397Z,69.97
2024-03-12T08:53:37.901Z,64.60
2024-03-12T08:56:07.084Z,63.38
2024-03-12T08:58:35.477Z,64.07
2024-03-12T09:01:04.835Z,61.60
2024-03-12T09:03:34.791Z,52.40
2024-03-12T09:06:04.597Z,49.58
2024-03-12T09:08:35.163Z,54.35
2024-03-12T09:11:07.655Z,47.65
2024-03-12T09:13:40.179Z,55.78
2024-03-12T09:16:16.115Z,47.08
2024-03-12T09:18:45.961Z,51.10
2024-03-12T09:21:14.984Z,46.15
2024-03-12T09:23:52.806Z,50.00
2024-03-12T09:26:29.375Z,56.28
2024-03-12T09:29:15.487Z,48.40
2024-03-12T09:31:44.949Z,46.60
2024-03-12T09:34:13.787Z,48.30
2024-03-12T09:39:19.938Z,55.78
2024-03-12T09:41:57.999Z,56.63
2024-03-12T09:44:27.217Z,47.45
2024-03-12T09:46:56.324Z,48.40
2024-03-12T09:52:07.903Z,50.58
2024-03-12T09:54:38.803Z,40.63
2024-03-12T09:57:07.806Z,39.25
2024-03-12T09:59:37.790Z,39.58
2024-03-12T10:02:07.060Z,47.47
2024-03-12T10:04:35.552Z,39.55
2024-03-12T10:07:07.426Z,41.42
2024-03-12T10:09:40.908Z,41.25
2024-03-12T10:12:12.334Z,42.67
2024-03-12T10:14:48.907Z,46.97
2024-03-12T10:17:19.303Z,39.08
2024-03-12T10:19:53.089Z,41.92
2024-03-12T10:22:23.421Z,33.35
2024-03-12T10:24:53.925Z,39.08
2024-03-12T10:27:22.197Z,41.60
2024-03-12T10:29:51.160Z,37.05
2024-03-12T10:32:20.449Z,37.72
2024-03-12T10:34:49.704Z,39.50
2024-03-12T10:37:28.227Z,33.55
2024-03-12T10:40:14.531Z,39.25
2024-03-12T10:42:54.137Z,46.20
2024-03-12T10:45:23.949Z,41.83
2024-03-12T10:47:53.036Z,36.15
2024-03-12T10:50:24.930Z,40.63
2024-03-12T10:52:55.680Z,36.15
2024-03-12T10:55:34.416Z,42.78
2024-03-12T10:58:05.639Z,38.88
2024-03-12T11:00:36.772Z,35.45
2024-03-12T11:03:06.578Z,38.78
2024-03-12T11:05:40.511Z,44.20
2024-03-12T11:08:11.676Z,43.88
2024-03-12T11:10:43.557Z,43.25
2024-03-12T11:13:14.563Z,37.95
2024-03-12T11:15:43.954Z,43.85
2024-03-12T11:18:12.654Z,38.13
2024-03-12T11:20:41.758Z,46.00
2024-03-12T11:23:11.837Z,39.30
2024-03-12T11:25:51.008Z,49.25
2024-03-12T11:28:22.116Z,42.25
2024-03-12T11:31:02.317Z,44.55
2024-03-12T11:33:56.866Z,41.35
2024-03-12T11:36:35.569Z,45.75
2024-03-12T11:39:22.917Z,46.10
2024-03-12T11:44:49.460Z,49.53
2024-03-12T11:47:32.145Z,43.45
2024-03-12T11:50:05.002Z,45.20
2024-03-12T11:52:35.255Z,48.22
2024-03-12T11:55:06.214Z,47.00
2024-03-12T11:57:36.363Z,47.55
2024-03-12T12:00:11.047Z,54.15
2024-03-12T12:02:45.196Z,49.25
2024-03-12T12:05:14.749Z,54.42
2024-03-12T12:07:43.090Z,45.72
2024-03-12T12:10:13.199Z,48.60
2024-03-12T12:12:44.741Z,47.35
2024-03-12T12:15:19.048Z,48.60
2024-03-12T12:17:47.872Z,44.65
2024-03-12T12:22:52.693Z,53.35
2024-03-12T12:25:27.550Z,48.75
2024-03-12T12:27:56.752Z,42.03
2024-03-12T12:30:28.832Z,46.90
2024-03-12T12:32:58.355Z,48.40
2024-03-12T12:35:29.523Z,43.15
2024-03-12T12:37:58.560Z,49.15
2024-03-12T12:40:27.706Z,44.63
2024-03-12T12:42:56.848Z,40.80
2024-03-12T12:45:31.509Z,39.28
2024-03-12T12:48:00.665Z,47.97
2024-03-12T12:50:35.003Z,40.45
2024-03-12T12:53:05.788Z,39.17
2024-03-12T12:55:56.071Z,40.25
2024-03-12T12:58:27.410Z,50.92
2024-03-12T13:03:52.153Z,44.17
2024-03-12T13:06:24.093Z,44.10
2024-03-12T13:08:54.009Z,45.10
2024-03-12T13:11:23.518Z,41.67
2024-03-12T13:13:53.004Z,44.45
2024-03-12T13:16:25.330Z,46.45
2024-03-12T13:18:57.328Z,41.30
2024-03-12T13:21:29.014Z,33.58
2024-03-12T13:24:00.023Z,40.92
2024-03-12T13:26:32.998Z,45.67
2024-03-12T13:29:01.420Z,46.15
2024-03-12T13:31:42.520Z,41.88
2024-03-12T13:34:11.382Z,36.63
2024-03-12T13:36:40.554Z,36.50
2024-03-12T13:39:09.062Z,40.00
2024-03-12T13:41:38.893Z,35.65
2024-03-12T13:44:07.943Z,43.17
2024-03-12T13:46:42.204Z,35.38
2024-03-12T13:49:29.145Z,40.30
2024-03-12T13:52:00.047Z,38.00
2024-03-12T13:54:28.573Z,45.15
2024-03-12T13:57:09.176Z,38.60
2024-03-12T13:59:41.220Z,44.05
2024-03-12T14:02:14.999Z,43.00
2024-03-12T14:04:44.262Z,41.05
2024-03-12T14:07:15.257Z,37.70
2024-03-12T14:09:45.207Z,40.22
2024-03-12T14:12:14.469Z,33.53
2024-03-12T14:14:43.238Z,40.47
2024-03-12T14:19:44.062Z,44.92
2024-03-12T14:22:13.167Z,42.70
2024-03-12T14:24:44.381Z,41.88
2024-03-12T14:27:18.827Z,40.17
2024-03-12T14:29:47.678Z,48.28
2024-03-12T14:34:47.209Z,42.25
2024-03-12T14:37:19.957Z,44.03
2024-03-12T14:39:49.690Z,33.50
2024-03-12T14:42:18.375Z,41.00
2024-03-12T14:44:46.727Z,41.58
2024-03-12T14:47:16.656Z,40.72
2024-03-12T14:49:46.913Z,47.78
2024-03-12T14:52:15.960Z,36.22
2024-03-12T14:54:44.462Z,39.92
2024-03-12T14:57:12.980Z,39.67
2024-03-12T14:59:41.597Z,42.85
2024-03-12T15:02:11.448Z,46.47
2024-03-12T15:04:39.754Z,45.65
2024-03-12T15:07:10.696Z,43.35
2024-03-12T15:09:44.633Z,36.95
2024-03-12T15:12:14.641Z,39.70
2024-03-12T15:14:42.875Z,32.92
2024-03-12T15:17:13.319Z,26.83
2024-03-12T15:19:41.651Z,32.13
2024-03-12T15:22:11.560Z,29.95
2024-03-12T15:24:41.200Z,22.80
2024-03-12T15:27:11.613Z,29.42
2024-03-12T15:29:40.726Z,26.38
2024-03-12T15:32:12.198Z,27.52
2024-03-12T15:34:40.516Z,30.48
2024-03-12T15:37:10.874Z,25.17
2024-03-12T15:39:39.190Z,23.73
2024-03-12T15:42:09.551Z,24.85
2024-03-12T15:44:38.459Z,25.00
2024-03-12T15:47:07.680Z,22.95
2024-03-12T15:49:38.675Z,25.85
2024-03-12T15:52:08.504Z,21.60
2024-03-12T15:57:11.200Z,31.42
2024-03-12T15:59:39.449Z,25.35
2024-03-12T16:02:09.203Z,24.40
2024-03-12T16:04:38.416Z,21.23
2024-03-12T16:07:07.150Z,27.75
2024-03-12T16:09:36.747Z,17.80
2024-03-12T16:12:08.170Z,25.48
2024-03-12T16:14:37.077Z,22.08
2024-03-12T16:19:35.989Z,32.70
2024-03-12T16:24:33.167Z,38.30
2024-03-12T16:27:02.157Z,29.15
2024-03-12T16:32:01.665Z,37.63
2024-03-12T16:34:30.823Z,30.10
2024-03-12T16:36:59.096Z,30.40
2024-03-12T16:39:27.464Z,31.35
2024-03-12T16:41:57.828Z,33.42
2024-03-12T16:44:27.013Z,32.53
2024-03-12T16:46:57.473Z,32.05
2024-03-12T16:49:27.335Z,31.42
2024-03-12T16:51:55.829Z,33.25
2024-03-12T16:54:24.652Z,26.73
2024-03-12T16:59:23.301Z,41.05
2024-03-12T17:01:52.541Z,36.88
2024-03-12T17:04:24.488Z,33.50
2024-03-12T17:06:58.016Z,32.75
2024-03-12T17:09:26.666Z,32.85
2024-03-12T17:11:55.497Z,32.65
2024-03-12T17:17:06.619Z,46.63
2024-03-12T17:19:39.241Z,42.05
2024-03-12T17:22:11.423Z,38.30
2024-03-12T17:24:41.176Z,35.22
2024-03-12T17:27:10.666Z,34.50
2024-03-12T17:29:39.558Z,34.35
2024-03-12T17:32:11.771Z,36.45
2024-03-12T17:34:42.992Z,35.33
2024-03-12T17:37:16.449Z,35.65
2024-03-12T17:39:49.023Z,36.65
2024-03-12T17:42:21.148Z,37.90
2024-03-12T17:44:50.307Z,35.80
2024-03-12T17:47:22.313Z,37.42
2024-03-12T17:49:54.044Z,38.05
2024-03-12T17:52:23.498Z,37.80
2024-03-12T17:54:52.662Z,39.65
2024-03-12T17:57:22.198Z,37.70
2024-03-12T17:59:50.777Z,39.17
2024-03-12T18:02:19.818Z,37.10
2024-03-12T18:04:48.554Z,40.20
2024-03-12T18:07:24.459Z,38.88
2024-03-12T18:09:55.956Z,42.30
2024-03-12T18:12:24.757Z,40.38
2024-03-12T18:14:53.078Z,42.10
2024-03-12T18:17:22.569Z,44.08
2024-03-12T18:19:51.144Z,41.33
2024-03-12T18:22:23.494Z,44.17
2024-03-12T18:24:53.761Z,47.28
2024-03-12T18:27:23.873Z,44.17
2024-03-12T18:29:53.052Z,46.55
2024-03-12T18:32:21.858Z,46.42
2024-03-12T18:34:51.232Z,48.10
2024-03-12T18:37:21.150Z,47.90
2024-03-12T18:39:49.450Z,48.85
2024-03-12T18:42:17.875Z,48.83
2024-03-12T18:44:46.055Z,49.22
2024-03-12T18:47:15.366Z,48.67
2024-03-12T18:49:44.293Z,49.05
2024-03-12T18:54:43.035Z,61.10
2024-03-12T18:57:12.180Z,57.55
2024-03-12T18:59:41.017Z,54.17
2024-03-12T19:04:49.864Z,62.08
2024-03-12T19:07:18.961Z,57.67
2024-03-12T19:09:50.077Z,56.42
2024-03-12T19:12:19.842Z,53.60
2024-03-12T19:14:50.028Z,54.15
2024-03-12T19:17:19.589Z,50.28
2024-03-12T19:19:49.336Z,54.10
2024-03-12T19:22:18.784Z,53.15
2024-03-12T19:24:51.620Z,51.95
2024-03-12T19:27:30.864Z,54.92
2024-03-12T19:30:00.081Z,53.95
2024-03-12T19:32:28.859Z,55.00
2024-03-12T19:34:57.680Z,56.67
2024-03-12T19:37:31.156Z,51.92
2024-03-12T19:40:02.176Z,47.22
2024-03-12T19:42:31.360Z,50.88
2024-03-12T19:45:00.396Z,51.33
2024-03-12T19:47:29.244Z,50.38
2024-03-12T19:52:28.473Z,56.65
2024-03-12T19:54:57.215Z,56.53
2024-03-12T19:57:26.724Z,52.95
2024-03-12T19:59:55.004Z,51.17
2024-03-12T20:02:23.520Z,52.85
2024-03-12T20:04:52.127Z,54.92
2024-03-12T20:07:21.273Z,54.08
2024-03-12T20:09:49.575Z,51.70
2024-03-12T20:12:17.947Z,53.72
2024-03-12T20:14:49.503Z,55.80
2024-03-12T20:17:17.776Z,53.63
2024-03-12T20:19:48.042Z,50.95
2024-03-12T20:22:16.371Z,54.83
2024-03-12T20:24:44.904Z,52.53
2024-03-12T20:27:13.217Z,49.63
2024-03-12T20:29:41.508Z,50.55
2024-03-12T20:32:12.172Z,53.85
2024-03-12T20:34:42.463Z,50.20
2024-03-12T20:37:11.065Z,52.17
2024-03-12T20:39:41.381Z,50.83
2024-03-12T20:42:10.086Z,48.97
2024-03-12T20:44:39.608Z,49.40
2024-03-12T20:47:08.362Z,49.08
2024-03-12T20:49:38.449Z,48.53
2024-03-12T20:52:09.396Z,46.78
2024-03-12T20:54:37.751Z,49.10
2024-03-12T20:57:06.668Z,48.55
2024-03-12T20:59:35.864Z,48.67
2024-03-12T21:02:05.135Z,49.20
2024-03-12T21:04:33.377Z,49.05
2024-03-12T21:07:05.336Z,50.20
2024-03-12T21:09:34.037Z,49.72
2024-03-12T21:12:02.609Z,49.05
2024-03-12T21:14:30.207Z,50.60
2024-03-12T21:16:59.632Z,49.05
2024-03-12T21:19:27.864Z,49.38
2024-03-12T21:21:57.549Z,49.03
2024-03-12T21:24:27.486Z,49.08
2024-03-12T21:27:05.277Z,48.38
2024-03-12T21:29:34.366Z,51.13
2024-03-12T21:32:02.983Z,48.95
2024-03-12T21:34:31.477Z,47.22
2024-03-12T21:37:00.193Z,47.90
2024-03-12T21:39:29.927Z,47.25
2024-03-12T21:42:01.119Z,48.53
2024-03-12T21:44:29.799Z,50.05
2024-03-12T21:46:58.189Z,48.35
2024-03-12T21:49:26.556Z,50.95
2024-03-12T21:51:57.267Z,48.35
2024-03-12T21:54:25.983Z,49.80
2024-03-12T21:56:55.679Z,49.75
2024-03-12T21:59:23.982Z,50.67
2024-03-12T22:01:52.268Z,48.75
2024-03-12T22:04:21.188Z,50.17
2024-03-12T22:09:19.293Z,59.65
2024-03-12T22:11:48.139Z,54.53
2024-03-12T22:14:18.939Z,51.38
2024-03-12T22:16:47.438Z,49.30
2024-03-12T22:19:16.299Z,46.38
2024-03-12T22:24:23.104Z,57.30
2024-03-12T22:26:51.894Z,53.13
2024-03-12T22:29:21.810Z,50.13
2024-03-12T22:31:49.962Z,48.83
2024-03-12T22:34:18.401Z,46.10
2024-03-12T22:36:46.781Z,49.47
2024-03-12T22:39:15.399Z,46.92
2024-03-12T22:41:49.055Z,46.75
2024-03-12T22:44:18.002Z,46.50
2024-03-12T22:46:49.692Z,44.83
2024-03-12T22:49:18.181Z,47.65
2024-03-12T22:51:47.897Z,47.25
2024-03-12T22:54:16.634Z,43.10
2024-03-12T22:56:45.275Z,45.15
2024-03-12T22:59:14.016Z,43.30
2024-03-12T23:01:47.870Z,44.95
2024-03-12T23:04:18.137Z,44.47
2024-03-12T23:06:46.828Z,45.03
2024-03-12T23:09:15.451Z,42.53
2024-03-12T23:11:43.787Z,46.25
2024-03-12T23:14:13.170Z,44.10
2024-03-12T23:16:41.296Z,43.85
2024-03-12T23:19:12.711Z,44.22
2024-03-12T23:21:44.337Z,43.83
2024-03-12T23:24:14.546Z,44.10
2024-03-12T23:26:43.682Z,46.00
2024-03-12T23:29:13.260Z,45.28
2024-03-12T23:31:41.677Z,46.33
2024-03-12T23:34:10.788Z,46.42
2024-03-12T23:36:39.310Z,45.42
2024-03-12T23:39:09.105Z,45.88
2024-03-12T23:41:37.314Z,46.28
2024-03-12T23:44:05.848Z,46.28
2024-03-12T23:46:35.434Z,47.50
2024-03-12T23:49:03.800Z,46.47
2024-03-12T23:51:34.536Z,46.92
2024-03-12T23:54:02.702Z,49.58
2024-03-12T23:56:32.459Z,48.83
2024-03-12T23:59:01.053Z,48.08
